createdAt,value
2023-01-07T00:00:52.753Z,7.70
2023-01-07T00:01:52.759Z,7.90
2023-01-07T00:02:52.847Z,8.30
2023-01-07T00:03:52.794Z,7.90
2023-01-07T00:04:52.676Z,8.40
2023-01-07T00:05:52.692Z,7.70
2023-01-07T00:06:52.653Z,7.60
2023-01-07T00:07:52.671Z,8.10
2023-01-07T00:08:52.649Z,8.10
2023-01-07T00:09:52.623Z,8.50
2023-01-07T00:10:52.610Z,8.20
2023-01-07T00:11:52.614Z,8.10
2023-01-07T00:12:52.614Z,8.40
2023-01-07T00:13:52.616Z,9.10
2023-01-07T00:14:52.546Z,8.80
2023-01-07T00:15:52.589Z,7.90
2023-01-07T00:16:52.531Z,7.80
2023-01-07T00:17:52.498Z,8.30
2023-01-07T00:18:52.499Z,8.70
2023-01-07T00:19:52.495Z,8.30
2023-01-07T00:20:52.486Z,8.10
2023-01-07T00:21:52.447Z,8.00
2023-01-07T00:22:52.481Z,8.50
2023-01-07T00:23:52.453Z,7.80
2023-01-07T00:24:52.440Z,8.90
2023-01-07T00:25:52.440Z,8.30
2023-01-07T00:26:52.402Z,8.40
2023-01-07T00:27:52.403Z,7.90
2023-01-07T00:28:52.379Z,8.00
2023-01-07T00:29:52.367Z,8.50
2023-01-07T00:30:52.330Z,8.20
2023-01-07T00:31:52.377Z,8.40
2023-01-07T00:32:52.367Z,7.90
2023-01-07T00:33:52.324Z,7.90
2023-01-07T00:34:52.312Z,8.20
2023-01-07T00:35:52.325Z,7.50
2023-01-07T00:36:52.285Z,8.60
2023-01-07T00:37:52.292Z,7.80
2023-01-07T00:38:52.274Z,8.00
2023-01-07T00:39:52.209Z,8.50
2023-01-07T00:40:52.219Z,8.00
2023-01-07T00:41:52.227Z,8.00
2023-01-07T00:42:52.185Z,8.60
2023-01-07T00:43:52.158Z,7.60
2023-01-07T00:44:52.169Z,8.30
2023-01-07T00:45:52.152Z,8.90
2023-01-07T00:46:52.191Z,8.60
2023-01-07T00:47:52.105Z,8.10
2023-01-07T00:48:52.095Z,8.30
2023-01-07T00:49:52.069Z,8.20
2023-01-07T00:50:52.120Z,8.40
2023-01-07T00:51:52.066Z,8.10
2023-01-07T00:52:52.059Z,8.20
2023-01-07T00:53:52.030Z,8.70
2023-01-07T00:54:52.050Z,8.60
2023-01-07T00:55:52.021Z,8.90
2023-01-07T00:56:52.011Z,9.00
2023-01-07T00:57:52.001Z,9.10
2023-01-07T00:58:52.000Z,9.80
2023-01-07T00:59:51.960Z,9.00
2023-01-07T01:00:52.104Z,9.50
2023-01-07T01:01:51.992Z,9.30
2023-01-07T01:02:51.999Z,9.40
2023-01-07T01:03:51.924Z,9.40
2023-01-07T01:04:51.895Z,10.10
2023-01-07T01:05:51.863Z,9.40
2023-01-07T01:06:51.888Z,10.10
2023-01-07T01:07:51.896Z,10.00
2023-01-07T01:08:51.854Z,10.60
2023-01-07T01:09:51.840Z,10.50
2023-01-07T01:10:51.843Z,10.00
2023-01-07T01:11:51.793Z,10.20
2023-01-07T01:12:51.780Z,9.90
2023-01-07T01:13:51.772Z,10.30
2023-01-07T01:14:51.777Z,10.10
2023-01-07T01:15:51.811Z,11.00
2023-01-07T01:16:51.801Z,11.20
2023-01-07T01:17:51.723Z,10.60
2023-01-07T01:18:51.756Z,11.40
2023-01-07T01:19:51.688Z,10.40
2023-01-07T01:20:51.724Z,11.50
2023-01-07T01:21:51.666Z,11.30
2023-01-07T01:22:51.671Z,11.30
2023-01-07T01:23:51.657Z,11.00
2023-01-07T01:24:51.634Z,11.70
2023-01-07T01:25:51.602Z,11.00
2023-01-07T01:26:51.657Z,11.20
2023-01-07T01:27:51.593Z,11.00
2023-01-07T01:28:51.584Z,11.50
2023-01-07T01:29:51.569Z,11.50
2023-01-07T01:30:51.555Z,11.20
2023-01-07T01:31:51.635Z,11.90
2023-01-07T01:32:51.555Z,12.00
2023-01-07T01:33:51.535Z,11.40
2023-01-07T01:34:51.483Z,11.90
2023-01-07T01:35:51.479Z,12.50
2023-01-07T01:36:51.481Z,12.10
2023-01-07T01:37:51.460Z,11.30
2023-01-07T01:38:51.466Z,11.50
2023-01-07T01:39:51.437Z,11.80
2023-01-07T01:40:51.456Z,11.90
2023-01-07T01:41:51.390Z,11.80
2023-01-07T01:42:51.425Z,11.60
2023-01-07T01:43:51.375Z,11.80
2023-01-07T01:44:51.383Z,11.40
2023-01-07T01:45:51.368Z,12.40
2023-01-07T01:46:51.434Z,11.20
2023-01-07T01:47:51.332Z,11.60
2023-01-07T01:48:51.339Z,11.80
2023-01-07T01:49:51.326Z,11.40
2023-01-07T01:50:51.281Z,12.30
2023-01-07T01:51:51.270Z,11.40
2023-01-07T01:52:51.263Z,12.00
2023-01-07T01:53:51.295Z,11.40
2023-01-07T01:54:51.226Z,12.10
2023-01-07T01:55:51.226Z,12.30
2023-01-07T01:56:51.207Z,12.30
2023-01-07T01:57:51.222Z,12.60
2023-01-07T01:58:51.207Z,12.50
2023-01-07T01:59:51.216Z,12.00
2023-01-07T02:00:51.254Z,12.70
2023-01-07T02:01:51.189Z,12.00
2023-01-07T02:02:51.208Z,12.00
2023-01-07T02:03:51.120Z,12.50
2023-01-07T02:04:51.120Z,12.30
2023-01-07T02:05:51.100Z,12.30
2023-01-07T02:06:51.077Z,12.30
2023-01-07T02:07:51.038Z,12.30
2023-01-07T02:08:51.044Z,12.50
2023-01-07T02:09:51.038Z,12.00
2023-01-07T02:10:51.057Z,12.90
2023-01-07T02:11:51.014Z,12.50
2023-01-07T02:12:51.037Z,12.40
2023-01-07T02:13:50.972Z,12.40
2023-01-07T02:14:50.981Z,12.90
2023-01-07T02:15:50.979Z,12.40
2023-01-07T02:16:50.957Z,13.10
2023-01-07T02:17:50.949Z,13.80
2023-01-07T02:18:50.943Z,13.70
2023-01-07T02:19:50.913Z,14.10
2023-01-07T02:20:50.892Z,14.50
2023-01-07T02:21:50.884Z,14.00
2023-01-07T02:22:50.878Z,14.00
2023-01-07T02:23:50.837Z,13.60
2023-01-07T02:24:50.842Z,13.40
2023-01-07T02:25:50.832Z,16.00
2023-01-07T02:26:50.808Z,15.80
2023-01-07T02:27:50.774Z,16.60
2023-01-07T02:28:50.844Z,18.60
2023-01-07T02:29:50.777Z,17.30
2023-01-07T02:30:50.738Z,16.20
2023-01-07T02:31:50.789Z,18.40
2023-01-07T02:32:50.723Z,17.30
2023-01-07T02:33:50.742Z,15.00
2023-01-07T02:34:50.731Z,15.00
2023-01-07T02:35:50.684Z,17.60
2023-01-07T02:36:50.672Z,17.70
2023-01-07T02:37:50.639Z,17.20
2023-01-07T02:38:50.638Z,17.40
2023-01-07T02:39:50.627Z,16.90
2023-01-07T02:40:50.640Z,15.80
2023-01-07T02:41:50.616Z,17.50
2023-01-07T02:42:50.614Z,15.90
2023-01-07T02:43:50.574Z,16.50
2023-01-07T02:44:50.596Z,15.90
2023-01-07T02:45:50.627Z,16.60
2023-01-07T02:46:50.552Z,16.80
2023-01-07T02:47:50.531Z,17.20
2023-01-07T02:48:50.543Z,16.50
2023-01-07T02:49:50.508Z,16.20
2023-01-07T02:50:50.497Z,16.40
2023-01-07T02:51:50.501Z,16.60
2023-01-07T02:52:50.458Z,16.20
2023-01-07T02:53:50.453Z,17.10
2023-01-07T02:54:50.488Z,16.90
2023-01-07T02:55:50.423Z,18.50
2023-01-07T02:56:50.469Z,18.20
2023-01-07T02:57:50.411Z,17.30
2023-01-07T02:58:50.374Z,20.90
2023-01-07T02:59:50.352Z,20.80
2023-01-07T03:00:50.480Z,18.10
2023-01-07T03:01:50.468Z,17.80
2023-01-07T03:02:50.337Z,14.10
2023-01-07T03:03:50.340Z,15.10
2023-01-07T03:04:50.318Z,15.50
2023-01-07T03:05:50.323Z,13.80
2023-01-07T03:06:50.273Z,11.80
2023-01-07T03:07:50.328Z,10.90
2023-01-07T03:08:50.237Z,15.20
2023-01-07T03:09:50.235Z,14.90
2023-01-07T03:10:50.263Z,15.10
2023-01-07T03:11:50.274Z,16.40
2023-01-07T03:12:50.252Z,15.40
2023-01-07T03:13:50.223Z,15.20
2023-01-07T03:14:50.247Z,15.40
2023-01-07T03:15:50.160Z,17.90
2023-01-07T03:16:50.205Z,14.60
2023-01-07T03:17:50.276Z,12.60
2023-01-07T03:18:50.117Z,11.90
2023-01-07T03:19:50.119Z,13.20
2023-01-07T03:20:50.094Z,13.10
2023-01-07T03:21:50.102Z,14.30
2023-01-07T03:22:50.064Z,14.10
2023-01-07T03:23:50.051Z,14.10
2023-01-07T03:24:50.109Z,15.00
2023-01-07T03:25:50.041Z,16.40
2023-01-07T03:26:50.036Z,16.70
2023-01-07T03:27:50.036Z,18.20
2023-01-07T03:28:49.988Z,18.20
2023-01-07T03:29:49.989Z,19.80
2023-01-07T03:30:49.985Z,19.40
2023-01-07T03:31:49.970Z,19.50
2023-01-07T03:32:49.968Z,18.00
2023-01-07T03:33:50.013Z,18.50
2023-01-07T03:34:49.934Z,19.30
2023-01-07T03:35:49.916Z,17.60
2023-01-07T03:36:49.923Z,18.20
2023-01-07T03:37:49.894Z,17.70
2023-01-07T03:38:49.857Z,16.50
2023-01-07T03:39:49.874Z,15.30
2023-01-07T03:40:49.866Z,16.60
2023-01-07T03:41:49.815Z,14.70
2023-01-07T03:42:49.785Z,16.00
2023-01-07T03:43:49.800Z,17.00
2023-01-07T03:44:49.788Z,15.90
2023-01-07T03:45:49.819Z,17.00
2023-01-07T03:46:49.827Z,18.30
2023-01-07T03:47:49.752Z,18.10
2023-01-07T03:48:49.713Z,17.80
2023-01-07T03:49:49.722Z,19.30
2023-01-07T03:50:49.702Z,18.00
2023-01-07T03:51:49.715Z,20.30
2023-01-07T03:52:49.707Z,19.10
2023-01-07T03:53:49.682Z,19.30
2023-01-07T03:54:49.664Z,17.50
2023-01-07T03:55:49.628Z,18.50
2023-01-07T03:56:49.614Z,18.90
2023-01-07T03:57:49.650Z,18.40
2023-01-07T03:58:49.620Z,18.50
2023-01-07T03:59:49.587Z,18.80
2023-01-07T04:00:49.685Z,20.40
2023-01-07T04:01:49.703Z,19.40
2023-01-07T04:02:49.539Z,18.10
2023-01-07T04:03:49.553Z,22.00
2023-01-07T04:04:49.625Z,18.90
2023-01-07T04:05:49.521Z,17.40
2023-01-07T04:06:49.494Z,17.50
2023-01-07T04:07:49.512Z,17.20
2023-01-07T04:08:49.458Z,17.30
2023-01-07T04:09:49.450Z,16.40
2023-01-07T04:10:49.481Z,16.40
2023-01-07T04:11:49.455Z,17.50
2023-01-07T04:12:49.395Z,17.60
2023-01-07T04:13:49.404Z,17.60
2023-01-07T04:14:49.413Z,16.20
2023-01-07T04:15:49.410Z,17.20
2023-01-07T04:16:49.416Z,15.70
2023-01-07T04:17:49.349Z,15.40
2023-01-07T04:18:49.341Z,16.30
2023-01-07T04:19:49.333Z,14.40
2023-01-07T04:20:49.301Z,14.90
2023-01-07T04:21:49.298Z,14.60
2023-01-07T04:22:49.296Z,15.40
2023-01-07T04:23:49.304Z,15.20
2023-01-07T04:24:49.269Z,15.20
2023-01-07T04:25:49.305Z,13.70
2023-01-07T04:26:49.232Z,14.80
2023-01-07T04:27:49.204Z,14.40
2023-01-07T04:28:49.278Z,16.30
2023-01-07T04:29:49.202Z,15.00
2023-01-07T04:30:49.262Z,15.50
2023-01-07T04:31:49.176Z,15.30
2023-01-07T04:32:49.157Z,15.10
2023-01-07T04:33:49.137Z,16.30
2023-01-07T04:34:49.115Z,16.30
2023-01-07T04:35:49.101Z,16.60
2023-01-07T04:36:49.119Z,13.90
2023-01-07T04:37:49.069Z,14.10
2023-01-07T04:38:49.070Z,14.90
2023-01-07T04:39:49.074Z,15.40
2023-01-07T04:40:49.036Z,15.00
2023-01-07T04:41:49.054Z,15.50
2023-01-07T04:42:49.041Z,15.70
2023-01-07T04:43:49.046Z,16.60
2023-01-07T04:44:48.997Z,15.50
2023-01-07T04:45:49.009Z,15.50
2023-01-07T04:46:48.948Z,15.70
2023-01-07T04:47:48.994Z,15.60
2023-01-07T04:48:48.946Z,15.60
2023-01-07T04:49:48.967Z,14.60
2023-01-07T04:50:48.881Z,14.90
2023-01-07T04:51:48.873Z,15.40
2023-01-07T04:52:48.865Z,14.10
2023-01-07T04:53:48.914Z,14.80
2023-01-07T04:54:48.914Z,13.70
2023-01-07T04:55:48.852Z,13.50
2023-01-07T04:56:48.830Z,13.90
2023-01-07T04:57:48.829Z,13.00
2023-01-07T04:58:48.801Z,13.50
2023-01-07T04:59:48.839Z,13.40
2023-01-07T05:00:48.823Z,12.40
2023-01-07T05:01:48.875Z,13.10
2023-01-07T05:02:48.748Z,13.20
2023-01-07T05:03:48.759Z,13.60
2023-01-07T05:04:48.799Z,12.60
2023-01-07T05:05:48.720Z,13.20
2023-01-07T05:06:48.703Z,12.80
2023-01-07T05:07:48.694Z,12.90
2023-01-07T05:08:48.678Z,12.30
2023-01-07T05:09:48.688Z,12.60
2023-01-07T05:10:48.688Z,12.20
2023-01-07T05:11:48.647Z,12.10
2023-01-07T05:12:48.631Z,13.20
2023-01-07T05:13:48.616Z,11.80
2023-01-07T05:14:48.568Z,12.70
2023-01-07T05:15:48.567Z,11.30
2023-01-07T05:16:48.585Z,11.90
2023-01-07T05:17:48.605Z,11.00
2023-01-07T05:18:48.556Z,11.80
2023-01-07T05:19:48.560Z,11.50
2023-01-07T05:20:48.511Z,12.20
2023-01-07T05:21:48.547Z,12.10
2023-01-07T05:22:50.263Z,12.10
2023-01-07T05:23:48.513Z,12.50
2023-01-07T05:24:48.460Z,12.00
2023-01-07T05:25:48.452Z,12.20
2023-01-07T05:26:48.459Z,11.00
2023-01-07T05:27:48.433Z,11.20
2023-01-07T05:28:48.392Z,10.60
2023-01-07T05:29:48.417Z,11.20
2023-01-07T05:30:48.391Z,10.70
2023-01-07T05:31:48.373Z,10.70
2023-01-07T05:32:48.362Z,11.30
2023-01-07T05:33:48.364Z,11.50
2023-01-07T05:34:48.337Z,10.80
2023-01-07T05:35:48.318Z,10.70
2023-01-07T05:36:48.317Z,12.30
2023-01-07T05:37:48.284Z,11.70
2023-01-07T05:38:48.266Z,11.20
2023-01-07T05:39:48.295Z,11.30
2023-01-07T05:40:49.609Z,11.80
2023-01-07T05:41:48.236Z,11.00
2023-01-07T05:42:48.211Z,10.50
2023-01-07T05:43:48.187Z,12.00
2023-01-07T05:44:48.181Z,10.90
2023-01-07T05:45:48.204Z,11.30
2023-01-07T05:46:48.176Z,10.70
2023-01-07T05:47:48.148Z,11.10
2023-01-07T05:48:48.116Z,11.00
2023-01-07T05:49:48.183Z,10.90
2023-01-07T05:50:48.115Z,10.60
2023-01-07T05:51:48.107Z,11.10
2023-01-07T05:52:48.152Z,11.00
2023-01-07T05:53:48.136Z,11.40
2023-01-07T05:54:48.069Z,10.60
2023-01-07T05:55:48.078Z,10.00
2023-01-07T05:56:48.087Z,10.60
2023-01-07T05:57:48.083Z,10.90
2023-01-07T05:58:48.073Z,9.80
2023-01-07T05:59:47.998Z,10.20
2023-01-07T06:00:47.982Z,9.50
2023-01-07T06:01:47.976Z,9.50
2023-01-07T06:02:47.969Z,9.70
2023-01-07T06:03:48.065Z,8.80
2023-01-07T06:04:47.962Z,9.60
2023-01-07T06:05:47.928Z,9.50
2023-01-07T06:06:47.913Z,9.30
2023-01-07T06:07:47.892Z,9.00
2023-01-07T06:08:47.879Z,9.60
2023-01-07T06:09:47.879Z,9.20
2023-01-07T06:10:47.848Z,8.40
2023-01-07T06:11:47.839Z,9.20
2023-01-07T06:12:47.844Z,9.20
2023-01-07T06:13:47.819Z,9.10
2023-01-07T06:14:47.783Z,8.40
2023-01-07T06:15:47.843Z,8.20
2023-01-07T06:16:47.795Z,8.00
2023-01-07T06:17:47.733Z,8.30
2023-01-07T06:18:47.776Z,8.00
2023-01-07T06:19:47.773Z,7.80
2023-01-07T06:20:47.736Z,8.30
2023-01-07T06:21:47.720Z,7.70
2023-01-07T06:22:47.705Z,8.10
2023-01-07T06:23:47.660Z,8.50
2023-01-07T06:24:47.676Z,8.10
2023-01-07T06:25:47.652Z,8.90
2023-01-07T06:26:47.631Z,9.00
2023-01-07T06:27:47.611Z,8.80
2023-01-07T06:28:47.598Z,8.90
2023-01-07T06:29:47.604Z,8.70
2023-01-07T06:30:47.654Z,8.10
2023-01-07T06:31:47.573Z,8.40
2023-01-07T06:32:47.569Z,8.60
2023-01-07T06:33:47.610Z,8.20
2023-01-07T06:34:47.532Z,8.40
2023-01-07T06:35:47.522Z,7.90
2023-01-07T06:36:47.483Z,8.10
2023-01-07T06:37:47.498Z,8.30
2023-01-07T06:38:47.488Z,8.90
2023-01-07T06:39:47.466Z,8.30
2023-01-07T06:40:47.486Z,8.80
2023-01-07T06:41:47.459Z,8.30
2023-01-07T06:42:47.402Z,8.50
2023-01-07T06:43:47.426Z,8.90
2023-01-07T06:44:47.393Z,9.00
2023-01-07T06:45:47.368Z,8.10
2023-01-07T06:46:47.344Z,8.40
2023-01-07T06:47:47.392Z,8.00
2023-01-07T06:48:47.345Z,8.00
2023-01-07T06:49:47.344Z,7.90
2023-01-07T06:50:47.347Z,7.70
2023-01-07T06:51:47.313Z,7.70
2023-01-07T06:52:47.268Z,8.20
2023-01-07T06:53:47.298Z,7.20
2023-01-07T06:54:48.590Z,7.70
2023-01-07T06:55:47.243Z,7.90
2023-01-07T06:56:47.258Z,7.40
2023-01-07T06:57:47.221Z,8.00
2023-01-07T06:58:47.233Z,7.90
2023-01-07T06:59:47.210Z,7.70
2023-01-07T07:00:47.203Z,7.40
2023-01-07T07:01:47.276Z,7.80
2023-01-07T07:02:47.195Z,7.80
2023-01-07T07:03:47.180Z,7.70
2023-01-07T07:04:47.138Z,7.60
2023-01-07T07:05:47.121Z,7.40
2023-01-07T07:06:47.132Z,8.10
2023-01-07T07:07:47.066Z,7.30
2023-01-07T07:08:47.060Z,7.00
2023-01-07T07:09:47.148Z,7.10
2023-01-07T07:10:47.024Z,7.20
2023-01-07T07:11:47.032Z,7.10
2023-01-07T07:12:47.043Z,7.10
2023-01-07T07:13:47.045Z,7.00
2023-01-07T07:14:47.008Z,7.20
2023-01-07T07:15:47.015Z,6.90
2023-01-07T07:16:46.966Z,6.70
2023-01-07T07:17:46.949Z,6.70
2023-01-07T07:18:46.987Z,6.80
2023-01-07T07:19:46.920Z,7.30
2023-01-07T07:20:46.914Z,7.50
2023-01-07T07:21:46.886Z,7.10
2023-01-07T07:22:46.892Z,7.10
2023-01-07T07:23:46.898Z,7.00
2023-01-07T07:24:46.898Z,7.20
2023-01-07T07:25:46.847Z,7.50
2023-01-07T07:26:46.817Z,7.50
2023-01-07T07:27:46.853Z,6.70
2023-01-07T07:28:46.803Z,7.30
2023-01-07T07:29:46.780Z,7.20
2023-01-07T07:30:47.576Z,7.60
2023-01-07T07:31:46.748Z,6.50
2023-01-07T07:32:46.802Z,6.80
2023-01-07T07:33:46.759Z,7.30
2023-01-07T07:34:46.719Z,6.50
2023-01-07T07:35:46.750Z,6.70
2023-01-07T07:36:46.717Z,6.40
2023-01-07T07:37:46.672Z,6.70
2023-01-07T07:38:46.703Z,7.40
2023-01-07T07:39:46.706Z,7.00
2023-01-07T07:40:46.718Z,6.60
2023-01-07T07:41:46.641Z,7.10
2023-01-07T07:43:10.246Z,6.70
2023-01-07T07:43:46.628Z,7.10
2023-01-07T07:44:46.612Z,6.70
2023-01-07T07:45:46.586Z,7.10
2023-01-07T07:46:46.662Z,6.80
2023-01-07T07:47:46.563Z,6.70
2023-01-07T07:48:46.554Z,7.00
2023-01-07T07:49:46.536Z,6.40
2023-01-07T07:50:46.522Z,6.60
2023-01-07T07:51:46.525Z,6.70
2023-01-07T07:52:46.504Z,6.70
2023-01-07T07:53:46.458Z,6.40
2023-01-07T07:54:46.482Z,6.70
2023-01-07T07:55:46.471Z,6.90
2023-01-07T07:56:46.444Z,6.40
2023-01-07T07:57:46.415Z,6.70
2023-01-07T07:58:46.435Z,5.90
2023-01-07T07:59:46.412Z,5.80
2023-01-07T08:00:46.366Z,6.30
2023-01-07T08:01:46.547Z,6.90
2023-01-07T08:02:46.362Z,6.30
2023-01-07T08:03:46.483Z,6.70
2023-01-07T08:04:46.319Z,6.20
2023-01-07T08:05:46.317Z,6.50
2023-01-07T08:06:46.316Z,5.60
2023-01-07T08:07:46.290Z,6.20
2023-01-07T08:08:46.308Z,6.60
2023-01-07T08:09:46.260Z,5.90
2023-01-07T08:10:46.274Z,5.80
2023-01-07T08:11:46.223Z,6.50
2023-01-07T08:12:46.227Z,5.70
2023-01-07T08:13:46.226Z,5.50
2023-01-07T08:14:46.236Z,5.20
2023-01-07T08:15:46.247Z,6.60
2023-01-07T08:16:46.155Z,5.60
2023-01-07T08:17:46.179Z,6.10
2023-01-07T08:18:46.162Z,5.90
2023-01-07T08:19:46.143Z,5.80
2023-01-07T08:20:46.128Z,5.70
2023-01-07T08:21:46.101Z,5.80
2023-01-07T08:22:46.099Z,5.60
2023-01-07T08:23:46.090Z,5.50
2023-01-07T08:24:46.076Z,5.00
2023-01-07T08:25:46.093Z,5.30
2023-01-07T08:26:46.022Z,4.70
2023-01-07T08:27:46.068Z,5.10
2023-01-07T08:28:46.889Z,5.30
2023-01-07T08:29:46.001Z,4.80
2023-01-07T08:30:45.995Z,4.90
2023-01-07T08:31:45.975Z,4.90
2023-01-07T08:32:45.965Z,5.00
2023-01-07T08:33:45.953Z,5.00
2023-01-07T08:34:45.989Z,5.00
2023-01-07T08:35:45.920Z,5.00
2023-01-07T08:36:45.898Z,5.50
2023-01-07T08:37:45.898Z,5.30
2023-01-07T08:38:45.889Z,5.20
2023-01-07T08:39:45.862Z,5.10
2023-01-07T08:40:45.891Z,4.70
2023-01-07T08:41:45.831Z,5.60
2023-01-07T08:42:45.830Z,5.20
2023-01-07T08:43:45.806Z,5.70
2023-01-07T08:44:45.797Z,5.30
2023-01-07T08:45:45.778Z,5.10
2023-01-07T08:46:45.842Z,6.00
2023-01-07T08:47:45.904Z,5.60
2023-01-07T08:48:45.753Z,5.70
2023-01-07T08:49:45.719Z,4.90
2023-01-07T08:50:45.735Z,4.70
2023-01-07T08:51:45.707Z,4.20
2023-01-07T08:52:45.699Z,4.20
2023-01-07T08:53:45.661Z,4.40
2023-01-07T08:54:47.955Z,4.00
2023-01-07T08:55:45.668Z,4.20
2023-01-07T08:56:45.648Z,4.60
2023-01-07T08:57:45.630Z,4.00
2023-01-07T08:58:45.614Z,4.30
2023-01-07T08:59:45.653Z,3.90
2023-01-07T09:00:45.617Z,4.30
2023-01-07T09:01:45.772Z,4.40
2023-01-07T09:02:45.688Z,4.10
2023-01-07T09:03:45.586Z,4.50
2023-01-07T09:04:45.546Z,4.50
2023-01-07T09:05:45.531Z,4.00
2023-01-07T09:06:45.505Z,3.70
2023-01-07T09:07:45.492Z,4.00
2023-01-07T09:08:45.471Z,3.70
2023-01-07T09:09:45.484Z,3.80
2023-01-07T09:10:45.439Z,3.80
2023-01-07T09:11:45.434Z,3.80
2023-01-07T09:12:45.647Z,3.40
2023-01-07T09:13:45.616Z,3.80
2023-01-07T09:14:45.462Z,3.10
2023-01-07T09:15:45.393Z,3.20
2023-01-07T09:16:45.399Z,3.00
2023-01-07T09:17:45.364Z,3.00
2023-01-07T09:18:45.347Z,3.20
2023-01-07T09:19:45.315Z,3.20
2023-01-07T09:20:45.339Z,3.70
2023-01-07T09:21:45.285Z,3.20
2023-01-07T09:22:45.312Z,3.20
2023-01-07T09:23:45.256Z,2.80
2023-01-07T09:24:47.130Z,2.80
2023-01-07T09:25:45.241Z,2.30
2023-01-07T09:26:45.244Z,2.70
2023-01-07T09:27:45.230Z,2.80
2023-01-07T09:28:45.221Z,2.40
2023-01-07T09:29:45.196Z,2.60
2023-01-07T09:30:45.194Z,2.90
2023-01-07T09:31:45.209Z,2.50
2023-01-07T09:32:45.163Z,2.70
2023-01-07T09:33:45.145Z,2.40
2023-01-07T09:34:45.177Z,2.90
2023-01-07T09:35:45.114Z,2.60
2023-01-07T09:36:45.129Z,2.70
2023-01-07T09:37:45.090Z,2.70
2023-01-07T09:38:45.069Z,2.60
2023-01-07T09:39:45.075Z,2.50
2023-01-07T09:40:45.034Z,2.60
2023-01-07T09:41:45.048Z,2.20
2023-01-07T09:42:45.060Z,2.60
2023-01-07T09:43:58.742Z,2.40
2023-01-07T09:44:44.995Z,2.60
2023-01-07T09:45:44.990Z,2.20
2023-01-07T09:46:44.978Z,2.30
2023-01-07T09:47:44.959Z,2.30
2023-01-07T09:48:45.024Z,4.80
2023-01-07T09:49:44.934Z,3.90
2023-01-07T09:50:44.920Z,2.00
2023-01-07T09:51:44.900Z,2.30
2023-01-07T09:52:44.885Z,2.00
2023-01-07T09:53:44.940Z,2.80
2023-01-07T09:54:44.910Z,4.60
2023-01-07T09:56:10.505Z,3.50
2023-01-07T09:56:44.823Z,2.20
2023-01-07T09:57:44.806Z,3.10
2023-01-07T09:58:44.814Z,2.20
2023-01-07T09:59:44.809Z,2.50
2023-01-07T10:00:44.767Z,2.40
2023-01-07T10:01:44.763Z,6.50
2023-01-07T10:02:44.769Z,2.60
2023-01-07T10:03:44.752Z,1.40
2023-01-07T10:04:44.757Z,6.50
2023-01-07T10:05:44.715Z,2.10
2023-01-07T10:06:44.707Z,1.20
2023-01-07T10:07:44.705Z,1.20
2023-01-07T10:08:44.716Z,1.20
2023-01-07T10:09:44.656Z,1.60
2023-01-07T10:10:44.628Z,1.10
2023-01-07T10:11:44.637Z,1.20
2023-01-07T10:12:44.606Z,1.30
2023-01-07T10:13:44.601Z,1.10
2023-01-07T10:14:44.597Z,1.10
2023-01-07T10:15:44.591Z,1.30
2023-01-07T10:16:44.597Z,1.30
2023-01-07T10:17:44.568Z,1.10
2023-01-07T10:18:44.551Z,1.20
2023-01-07T10:19:44.528Z,1.30
2023-01-07T10:20:44.524Z,1.00
2023-01-07T10:21:45.167Z,1.30
2023-01-07T10:22:44.516Z,1.10
2023-01-07T10:23:44.457Z,1.10
2023-01-07T10:24:44.455Z,1.20
2023-01-07T10:25:44.454Z,1.00
2023-01-07T10:26:44.441Z,1.20
2023-01-07T10:27:44.416Z,1.70
2023-01-07T10:28:44.392Z,1.20
2023-01-07T10:29:44.389Z,1.50
2023-01-07T10:30:44.412Z,1.20
2023-01-07T10:31:44.441Z,1.30
2023-01-07T10:32:44.353Z,1.00
2023-01-07T10:33:44.394Z,1.30
2023-01-07T10:34:44.341Z,1.10
2023-01-07T10:35:44.349Z,1.00
2023-01-07T10:36:44.321Z,0.80
2023-01-07T10:37:44.326Z,0.90
2023-01-07T10:38:44.283Z,0.90
2023-01-07T10:39:44.250Z,0.90
2023-01-07T10:40:44.241Z,0.80
2023-01-07T10:41:44.258Z,1.10
2023-01-07T10:42:44.260Z,1.00
2023-01-07T10:43:44.272Z,0.80
2023-01-07T10:44:44.213Z,1.00
2023-01-07T10:45:44.217Z,1.00
2023-01-07T10:46:44.254Z,0.90
2023-01-07T10:47:44.202Z,1.00
2023-01-07T10:48:44.122Z,1.10
2023-01-07T10:49:44.136Z,1.00
2023-01-07T10:50:44.137Z,0.90
2023-01-07T10:51:44.098Z,1.00
2023-01-07T10:52:44.094Z,0.90
2023-01-07T10:53:44.072Z,1.10
2023-01-07T10:54:44.060Z,1.10
2023-01-07T10:55:44.022Z,1.00
2023-01-07T10:56:44.089Z,1.00
2023-01-07T10:57:44.011Z,1.20
2023-01-07T10:58:44.003Z,0.90
2023-01-07T10:59:44.005Z,0.90
2023-01-07T11:00:44.012Z,1.00
2023-01-07T11:01:44.196Z,1.30
2023-01-07T11:02:43.987Z,0.80
2023-01-07T11:03:43.956Z,0.90
2023-01-07T11:04:43.905Z,0.90
2023-01-07T11:05:43.891Z,0.70
2023-01-07T11:06:43.889Z,0.70
2023-01-07T11:07:43.879Z,1.00
2023-01-07T11:08:43.871Z,0.90
2023-01-07T11:09:43.847Z,0.90
2023-01-07T11:10:43.878Z,0.90
2023-01-07T11:11:43.830Z,1.10
2023-01-07T11:12:43.867Z,0.90
2023-01-07T11:13:43.798Z,0.90
2023-01-07T11:14:43.819Z,0.80
2023-01-07T11:15:43.786Z,0.90
2023-01-07T11:16:43.838Z,0.80
2023-01-07T11:17:43.740Z,0.60
2023-01-07T11:18:43.745Z,0.90
2023-01-07T11:19:43.738Z,1.00
2023-01-07T11:20:43.693Z,1.00
2023-01-07T11:21:44.669Z,0.80
2023-01-07T11:22:43.695Z,1.00
2023-01-07T11:23:44.135Z,0.70
2023-01-07T11:24:43.644Z,0.80
2023-01-07T11:25:43.722Z,0.90
2023-01-07T11:26:43.646Z,0.80
2023-01-07T11:27:43.629Z,0.80
2023-01-07T11:28:43.621Z,0.80
2023-01-07T11:29:43.617Z,0.70
2023-01-07T11:30:43.589Z,0.70
2023-01-07T11:31:43.597Z,0.60
2023-01-07T11:32:43.582Z,0.70
2023-01-07T11:34:01.267Z,0.60
2023-01-07T11:34:43.550Z,0.70
2023-01-07T11:35:43.528Z,0.60
2023-01-07T11:36:43.528Z,0.90
2023-01-07T11:37:43.493Z,0.70
2023-01-07T11:38:43.498Z,0.50
2023-01-07T11:39:43.457Z,0.50
2023-01-07T11:40:43.451Z,0.70
2023-01-07T11:41:43.424Z,0.60
2023-01-07T11:42:43.431Z,0.60
2023-01-07T11:43:43.400Z,0.50
2023-01-07T11:44:43.408Z,0.50
2023-01-07T11:45:43.396Z,0.60
2023-01-07T11:46:43.500Z,0.60
2023-01-07T11:47:43.362Z,0.60
2023-01-07T11:48:43.344Z,0.60
2023-01-07T11:49:43.310Z,0.50
2023-01-07T11:50:43.320Z,0.60
2023-01-07T11:51:43.363Z,0.60
2023-01-07T11:52:43.280Z,0.60
2023-01-07T11:53:43.270Z,0.60
2023-01-07T11:54:43.285Z,0.80
2023-01-07T11:55:43.255Z,0.60
2023-01-07T11:56:43.225Z,0.70
2023-01-07T11:57:43.214Z,0.40
2023-01-07T11:58:43.303Z,0.40
2023-01-07T11:59:43.199Z,0.40
2023-01-07T12:00:43.182Z,0.50
2023-01-07T12:01:43.162Z,0.60
2023-01-07T12:02:43.264Z,0.40
2023-01-07T12:03:43.258Z,0.50
2023-01-07T12:04:43.210Z,0.60
2023-01-07T12:05:43.091Z,0.60
2023-01-07T12:06:43.086Z,0.70
2023-01-07T12:07:43.095Z,0.50
2023-01-07T12:08:43.158Z,0.50
2023-01-07T12:09:43.110Z,0.50
2023-01-07T12:10:43.106Z,0.50
2023-01-07T12:11:43.046Z,0.60
2023-01-07T12:12:43.057Z,0.40
2023-01-07T12:13:43.031Z,0.50
2023-01-07T12:14:43.009Z,0.50
2023-01-07T12:15:42.965Z,0.90
2023-01-07T12:16:43.020Z,0.80
2023-01-07T12:17:42.961Z,0.50
2023-01-07T12:18:42.930Z,0.60
2023-01-07T12:19:42.910Z,0.60
2023-01-07T12:20:42.934Z,0.60
2023-01-07T12:21:42.914Z,0.50
2023-01-07T12:22:42.894Z,0.50
2023-01-07T12:23:42.900Z,0.60
2023-01-07T12:24:42.878Z,0.50
2023-01-07T12:25:42.845Z,0.50
2023-01-07T12:26:42.841Z,0.80
2023-01-07T12:27:42.820Z,0.70
2023-01-07T12:28:42.774Z,0.60
2023-01-07T12:29:42.779Z,0.60
2023-01-07T12:30:44.126Z,0.70
2023-01-07T12:31:42.803Z,0.60
2023-01-07T12:32:42.745Z,0.50
2023-01-07T12:33:42.751Z,0.70
2023-01-07T12:34:42.711Z,0.60
2023-01-07T12:35:42.733Z,0.50
2023-01-07T12:36:42.731Z,0.50
2023-01-07T12:37:42.710Z,0.70
2023-01-07T12:38:42.667Z,0.70
2023-01-07T12:39:42.658Z,0.70
2023-01-07T12:40:42.649Z,0.60
2023-01-07T12:41:42.604Z,0.80
2023-01-07T12:42:42.618Z,0.70
2023-01-07T12:43:42.605Z,0.70
2023-01-07T12:44:42.562Z,0.80
2023-01-07T12:45:42.566Z,0.70
2023-01-07T12:46:42.572Z,0.60
2023-01-07T12:47:42.546Z,0.60
2023-01-07T12:48:42.505Z,0.60
2023-01-07T12:49:42.523Z,0.50
2023-01-07T12:50:42.497Z,0.70
2023-01-07T12:51:42.514Z,0.60
2023-01-07T12:52:42.568Z,0.70
2023-01-07T12:53:42.486Z,0.60
2023-01-07T12:54:42.611Z,0.60
2023-01-07T12:55:42.481Z,0.50
2023-01-07T12:56:42.513Z,0.50
2023-01-07T12:57:42.412Z,0.80
2023-01-07T12:58:42.410Z,0.50
2023-01-07T12:59:46.478Z,0.50
2023-01-07T13:00:42.371Z,0.50
2023-01-07T13:01:42.491Z,0.70
2023-01-07T13:02:42.347Z,0.50
2023-01-07T13:03:42.339Z,0.60
2023-01-07T13:04:42.444Z,0.60
2023-01-07T13:05:42.317Z,0.50
2023-01-07T13:06:42.310Z,0.60
2023-01-07T13:07:42.264Z,0.60
2023-01-07T13:08:42.241Z,0.50